Waimea, Hawaii
Current Conditions -  °F | °C
As of 11:56 AM on Sunday 23 Nov 2014 (Local Time) from PHBK Reporting Station
Clear Clear  
Wind Chill: 83°   Ceiling: Unl
Heat Index: 84°   Visibility: 10mi
Dew Point: 63°   Wind: 7mph
Humidity: 51%   Direction: 210°SSW
Pressure: 29.96"   Gusts: NA
Location:  21.96°N, 159.66°W
Report Text: PHBK 232156Z AUTO 21006KT 10SM CLR 28/17 A2996 RMK AO2 SLP148 T02830172 $
Loading
Personal Weather Stations






























Interactive Weather Map New forecast layout! Learn more

10-Day Weather Forecast

Advertisements
Track Severe Weather on mobile